createdAt,value
2022-11-18T00:05:01.559Z,95253.06
2022-11-18T00:10:22.092Z,95248.38
2022-11-18T00:15:42.901Z,95236.41
2022-11-18T00:21:08.041Z,95245.03
2022-11-18T00:26:28.832Z,95239.72
2022-11-18T00:31:49.748Z,95247.31
2022-11-18T00:37:10.561Z,95248.66
2022-11-18T00:42:50.017Z,95248.38
2022-11-18T00:48:10.645Z,95253.16
2022-11-18T00:53:31.488Z,95245.72
2022-11-18T00:58:52.397Z,95257.38
2022-11-18T01:04:13.406Z,95268.81
2022-11-18T01:09:34.083Z,95273.47
2022-11-18T01:14:54.908Z,95257.28
2022-11-18T01:20:16.077Z,95263.22
2022-11-18T01:25:37.399Z,95252.91
2022-11-18T01:31:09.176Z,95244.44
2022-11-18T01:36:29.816Z,95240.69
2022-11-18T01:41:50.385Z,95241.06
2022-11-18T01:47:11.169Z,95232.50
2022-11-18T01:52:33.972Z,95232.56
2022-11-18T01:57:58.635Z,95227.66
2022-11-18T02:03:20.599Z,95227.59
2022-11-18T02:08:44.148Z,95211.91
2022-11-18T02:14:06.149Z,95207.97
2022-11-18T02:19:33.223Z,95198.38
2022-11-18T02:25:12.786Z,95193.19
2022-11-18T02:30:38.311Z,95192.53
2022-11-18T02:36:25.125Z,95199.16
2022-11-18T02:41:47.188Z,95193.78
2022-11-18T02:47:10.984Z,95192.16
2022-11-18T02:52:34.408Z,95195.13
2022-11-18T02:57:56.638Z,95190.03
2022-11-18T03:03:23.605Z,95193.53
2022-11-18T03:09:04.335Z,95184.47
2022-11-18T03:14:32.837Z,95185.72
2022-11-18T03:19:59.814Z,95177.38
2022-11-18T03:25:23.761Z,95189.56
2022-11-18T03:30:49.093Z,95196.03
2022-11-18T03:36:11.358Z,95193.66
2022-11-18T03:41:35.453Z,95199.94
2022-11-18T03:47:01.144Z,95196.78
2022-11-18T03:52:25.522Z,95185.53
2022-11-18T03:58:10.008Z,95185.63
2022-11-18T04:03:30.994Z,95164.44
2022-11-18T04:08:54.915Z,95152.38
2022-11-18T04:14:17.565Z,95156.88
2022-11-18T04:19:38.627Z,95169.06
2022-11-18T04:24:59.153Z,95174.50
2022-11-18T04:30:20.057Z,95185.38
2022-11-18T04:35:40.537Z,95182.13
2022-11-18T04:41:01.359Z,95189.44
2022-11-18T04:46:22.176Z,95203.66
2022-11-18T04:51:43.785Z,95206.28
2022-11-18T04:57:04.672Z,95208.06
2022-11-18T05:02:25.598Z,95203.38
2022-11-18T05:07:46.735Z,95198.09
2022-11-18T05:13:07.168Z,95196.94
2022-11-18T05:18:28.137Z,95186.84
2022-11-18T05:23:48.926Z,95196.41
2022-11-18T05:29:09.987Z,95194.81
2022-11-18T05:34:30.482Z,95192.63
2022-11-18T05:39:51.441Z,95191.84
2022-11-18T05:45:12.065Z,95190.72
2022-11-18T05:50:34.734Z,95197.28
2022-11-18T05:55:58.827Z,95202.16
2022-11-18T06:01:22.701Z,95205.28
2022-11-18T06:06:45.653Z,95213.06
2022-11-18T06:12:07.202Z,95215.94
2022-11-18T06:17:30.223Z,95221.22
2022-11-18T06:22:53.553Z,95220.63
2022-11-18T06:28:15.176Z,95225.94
2022-11-18T06:33:35.751Z,95233.34
2022-11-18T06:38:56.726Z,95239.88
2022-11-18T06:44:17.668Z,95233.81
2022-11-18T06:49:38.315Z,95242.31
2022-11-18T06:54:59.149Z,95235.75
2022-11-18T07:00:20.063Z,95227.53
2022-11-18T07:05:40.736Z,95235.13
2022-11-18T07:11:01.653Z,95239.50
2022-11-18T07:16:26.593Z,95243.34
2022-11-18T07:21:47.323Z,95244.25
2022-11-18T07:27:08.230Z,95257.63
2022-11-18T07:32:29.212Z,95269.38
2022-11-18T07:37:49.925Z,95269.50
2022-11-18T07:43:10.705Z,95267.50
2022-11-18T07:48:31.659Z,95263.34
2022-11-18T07:53:52.546Z,95264.75
2022-11-18T07:59:13.572Z,95264.09
2022-11-18T08:04:37.070Z,95259.88
2022-11-18T08:09:57.557Z,95254.97
2022-11-18T08:15:18.521Z,95260.53
2022-11-18T08:20:39.539Z,95261.84
2022-11-18T08:26:18.299Z,95274.88
2022-11-18T08:31:39.178Z,95270.09
2022-11-18T08:36:59.670Z,95273.25
2022-11-18T08:42:24.495Z,95271.91
2022-11-18T08:47:45.727Z,95272.63
2022-11-18T08:53:06.748Z,95268.28
2022-11-18T08:58:28.078Z,95267.13
2022-11-18T09:03:49.092Z,95266.13
2022-11-18T09:09:10.072Z,95281.47
2022-11-18T09:15:12.525Z,95276.06
2022-11-18T09:20:11.676Z,95277.00
2022-11-18T09:25:32.480Z,95291.69
2022-11-18T09:30:53.293Z,95294.38
2022-11-18T09:36:19.004Z,95289.06
2022-11-18T09:41:39.737Z,95295.34
2022-11-18T09:47:00.655Z,95295.06
2022-11-18T09:52:21.434Z,95297.34
2022-11-18T09:57:51.321Z,95300.34
2022-11-18T10:03:16.255Z,95301.63
2022-11-18T10:08:37.830Z,95299.97
2022-11-18T10:14:04.465Z,95300.22
2022-11-18T10:19:40.262Z,95310.13
2022-11-18T10:25:01.240Z,95297.41
2022-11-18T10:30:23.850Z,95288.69
2022-11-18T10:35:44.829Z,95288.69
2022-11-18T10:41:07.977Z,95282.97
2022-11-18T10:46:28.482Z,95284.47
2022-11-18T10:52:04.582Z,95292.44
2022-11-18T10:57:25.381Z,95301.09
2022-11-18T11:02:47.740Z,95304.69
2022-11-18T11:08:36.576Z,95304.91
2022-11-18T11:14:13.413Z,95302.81
2022-11-18T11:19:41.877Z,95306.91
2022-11-18T11:25:02.611Z,95303.59
2022-11-18T11:30:24.142Z,95316.13
2022-11-18T11:35:54.922Z,95311.78
2022-11-18T11:41:15.715Z,95314.03
2022-11-18T11:47:21.042Z,95318.53
2022-11-18T11:53:00.577Z,95328.50
2022-11-18T11:58:40.194Z,95332.84
2022-11-18T12:04:04.114Z,95337.00
2022-11-18T12:09:34.130Z,95345.03
2022-11-18T12:14:57.812Z,95356.66
2022-11-18T12:20:38.727Z,95357.19
2022-11-18T12:26:06.618Z,95354.38
2022-11-18T12:31:31.166Z,95352.78
2022-11-18T12:36:52.369Z,95366.38
2022-11-18T12:42:51.067Z,95373.66
2022-11-18T12:48:27.218Z,95362.22
2022-11-18T12:53:49.867Z,95382.28
2022-11-18T12:59:13.067Z,95387.16
2022-11-18T13:04:33.942Z,95398.44
2022-11-18T13:09:54.513Z,95398.22
2022-11-18T13:15:34.156Z,95402.22
2022-11-18T13:21:19.328Z,95400.75
2022-11-18T13:26:41.784Z,95403.91
2022-11-18T13:32:17.240Z,95412.72
2022-11-18T13:37:47.978Z,95415.66
2022-11-18T13:43:11.062Z,95421.06
2022-11-18T13:48:33.176Z,95419.75
2022-11-18T13:53:54.075Z,95424.44
2022-11-18T13:59:20.126Z,95426.25
2022-11-18T14:04:49.719Z,95431.00
2022-11-18T14:10:15.455Z,95436.25
2022-11-18T14:15:43.214Z,95437.47
2022-11-18T14:21:06.014Z,95444.28
2022-11-18T14:26:28.269Z,95436.75
2022-11-18T14:32:24.303Z,95443.56
2022-11-18T14:37:45.840Z,95453.22
2022-11-18T14:43:07.201Z,95454.88
2022-11-18T14:48:32.412Z,95455.25
2022-11-18T14:53:53.224Z,95465.97
2022-11-18T14:59:14.602Z,95471.88
2022-11-18T15:04:35.246Z,95479.53
2022-11-18T15:09:56.080Z,95482.50
2022-11-18T15:15:17.282Z,95485.91
2022-11-18T15:20:38.078Z,95488.88
2022-11-18T15:25:58.944Z,95498.47
2022-11-18T15:31:19.510Z,95504.09
2022-11-18T15:36:40.572Z,95514.28
2022-11-18T15:42:01.023Z,95525.66
2022-11-18T15:47:21.847Z,95540.53
2022-11-18T15:52:42.579Z,95558.41
2022-11-18T15:58:03.293Z,95558.75
2022-11-18T16:03:24.146Z,95559.91
2022-11-18T16:08:45.128Z,95567.00
2022-11-18T16:14:10.368Z,95588.84
2022-11-18T16:19:33.582Z,95603.94
2022-11-18T16:24:54.168Z,95603.44
2022-11-18T16:30:33.727Z,95608.22
2022-11-18T16:35:55.708Z,95609.94
2022-11-18T16:41:31.642Z,95626.19
2022-11-18T16:46:54.139Z,95627.22
2022-11-18T16:52:14.710Z,95637.41
2022-11-18T16:57:35.555Z,95636.81
2022-11-18T17:02:56.129Z,95650.03
2022-11-18T17:08:16.975Z,95656.91
2022-11-18T17:13:38.242Z,95660.88
2022-11-18T17:19:00.131Z,95664.88
2022-11-18T17:24:22.249Z,95669.53
2022-11-18T17:29:45.318Z,95675.25
2022-11-18T17:35:07.905Z,95683.19
2022-11-18T17:40:29.157Z,95691.00
2022-11-18T17:45:53.866Z,95697.13
2022-11-18T17:51:15.800Z,95706.13
2022-11-18T17:56:37.778Z,95720.28
2022-11-18T18:01:59.780Z,95737.75
2022-11-18T18:07:20.437Z,95746.09
2022-11-18T18:12:59.922Z,95762.25
2022-11-18T18:18:20.603Z,95769.13
2022-11-18T18:23:41.499Z,95778.75
2022-11-18T18:29:03.075Z,95782.75
2022-11-18T18:34:23.579Z,95773.31
2022-11-18T18:39:44.449Z,95793.28
2022-11-18T18:45:23.945Z,95813.31
2022-11-18T18:50:44.559Z,95824.78
2022-11-18T18:56:05.548Z,95833.88
2022-11-18T19:01:27.286Z,95838.22
2022-11-18T19:06:55.026Z,95843.06
2022-11-18T19:12:38.104Z,95846.34
2022-11-18T19:17:58.771Z,95860.41
2022-11-18T19:23:20.671Z,95852.69
2022-11-18T19:28:41.381Z,95863.16
2022-11-18T19:34:02.166Z,95870.31
2022-11-18T19:39:22.961Z,95887.16
2022-11-18T19:44:43.812Z,95896.13
2022-11-18T19:50:05.519Z,95897.44
2022-11-18T19:55:26.098Z,95908.13
2022-11-18T20:00:46.883Z,95915.72
2022-11-18T20:06:09.736Z,95913.41
2022-11-18T20:11:30.514Z,95914.47
2022-11-18T20:16:54.459Z,95927.84
2022-11-18T20:22:15.165Z,95920.13
2022-11-18T20:27:37.933Z,95932.09
2022-11-18T20:32:59.907Z,95928.75
2022-11-18T20:38:22.929Z,95923.06
2022-11-18T20:43:44.299Z,95926.91
2022-11-18T20:49:04.822Z,95923.25
2022-11-18T20:54:25.787Z,95933.41
2022-11-18T20:59:46.440Z,95937.81
2022-11-18T21:05:07.731Z,95943.00
2022-11-18T21:10:28.607Z,95951.25
2022-11-18T21:15:49.831Z,95954.88
2022-11-18T21:21:29.195Z,95965.13
2022-11-18T21:26:50.828Z,95959.94
2022-11-18T21:32:11.390Z,95958.00
2022-11-18T21:37:33.233Z,95971.72
2022-11-18T21:42:55.810Z,95988.75
2022-11-18T21:48:16.463Z,95989.38
2022-11-18T21:53:38.680Z,95999.91
2022-11-18T21:59:00.840Z,95991.19
2022-11-18T22:04:40.333Z,96015.97
2022-11-18T22:10:00.980Z,96023.16
2022-11-18T22:15:21.617Z,96023.63
2022-11-18T22:20:42.636Z,96019.09
2022-11-18T22:26:11.006Z,96033.88
2022-11-18T22:31:31.888Z,96057.75
2022-11-18T22:36:52.385Z,96067.34
2022-11-18T22:42:31.721Z,96072.47
2022-11-18T22:47:52.347Z,96081.91
2022-11-18T22:53:13.155Z,96079.81
2022-11-18T22:58:34.161Z,96088.28
2022-11-18T23:03:54.655Z,96101.47
2022-11-18T23:09:15.484Z,96090.34
2022-11-18T23:14:36.182Z,96094.97
2022-11-18T23:19:57.245Z,96093.56
2022-11-18T23:25:18.014Z,96100.50
2022-11-18T23:30:38.922Z,96087.47
2022-11-18T23:36:00.067Z,96092.88
2022-11-18T23:41:21.251Z,96096.84
2022-11-18T23:46:41.906Z,96111.97
2022-11-18T23:52:02.801Z,96115.06
2022-11-18T23:57:23.684Z,96115.97
